createdAt,value
2023-05-21T00:01:42.552Z,64.64
2023-05-21T00:04:09.644Z,64.45
2023-05-21T00:06:36.420Z,64.22
2023-05-21T00:09:04.487Z,64.15
2023-05-21T00:11:31.685Z,64.10
2023-05-21T00:13:58.884Z,63.86
2023-05-21T00:16:26.002Z,63.83
2023-05-21T00:18:54.722Z,64.20
2023-05-21T00:21:25.923Z,63.92
2023-05-21T00:23:56.555Z,63.68
2023-05-21T00:26:26.399Z,63.82
2023-05-21T00:28:57.152Z,63.79
2023-05-21T00:31:24.140Z,63.69
2023-05-21T00:33:51.051Z,63.81
2023-05-21T00:36:17.867Z,63.78
2023-05-21T00:38:45.685Z,63.76
2023-05-21T00:41:13.026Z,63.77
2023-05-21T00:43:41.935Z,63.79
2023-05-21T00:46:16.504Z,63.64
2023-05-21T00:48:45.162Z,63.41
2023-05-21T00:51:16.706Z,63.65
2023-05-21T00:53:44.692Z,63.52
2023-05-21T00:56:11.549Z,63.75
2023-05-21T00:58:39.496Z,64.08
2023-05-21T01:01:07.114Z,64.20
2023-05-21T01:03:38.327Z,63.91
2023-05-21T01:06:06.413Z,64.18
2023-05-21T01:08:34.907Z,64.18
2023-05-21T01:11:02.653Z,64.22
2023-05-21T01:13:29.678Z,64.39
2023-05-21T01:15:58.598Z,64.29
2023-05-21T01:18:26.206Z,64.47
2023-05-21T01:20:53.730Z,64.46
2023-05-21T01:23:21.128Z,64.22
2023-05-21T01:25:47.960Z,64.53
2023-05-21T01:28:14.993Z,64.49
2023-05-21T01:30:42.896Z,64.60
2023-05-21T01:33:27.046Z,64.70
2023-05-21T01:35:56.730Z,64.50
2023-05-21T01:38:31.274Z,64.31
2023-05-21T01:41:10.918Z,64.79
2023-05-21T01:43:39.613Z,64.30
2023-05-21T01:46:08.143Z,64.37
2023-05-21T01:48:36.316Z,64.82
2023-05-21T01:51:05.424Z,64.51
2023-05-21T01:53:32.198Z,64.63
2023-05-21T01:55:59.360Z,64.63
2023-05-21T01:58:26.507Z,64.65
2023-05-21T02:00:53.346Z,64.35
2023-05-21T02:03:20.735Z,64.51
2023-05-21T02:05:47.739Z,64.45
2023-05-21T02:08:19.583Z,64.51
2023-05-21T02:10:46.381Z,64.49
2023-05-21T02:13:13.322Z,65.08
2023-05-21T02:15:40.247Z,64.99
2023-05-21T02:18:07.190Z,64.51
2023-05-21T02:20:34.175Z,64.83
2023-05-21T02:23:01.222Z,64.82
2023-05-21T02:25:28.198Z,64.62
2023-05-21T02:27:56.623Z,64.83
2023-05-21T02:30:23.845Z,64.90
2023-05-21T02:32:50.999Z,65.04
2023-05-21T02:35:18.085Z,64.72
2023-05-21T02:37:45.075Z,64.70
2023-05-21T02:40:12.061Z,64.67
2023-05-21T02:42:41.424Z,64.97
2023-05-21T02:45:12.965Z,64.86
2023-05-21T02:47:42.160Z,64.58
2023-05-21T02:50:09.369Z,64.94
2023-05-21T02:52:43.461Z,64.84
2023-05-21T02:55:10.277Z,64.89
2023-05-21T02:57:37.286Z,64.92
2023-05-21T03:00:06.060Z,64.87
2023-05-21T03:02:33.289Z,65.19
2023-05-21T03:05:00.679Z,64.92
2023-05-21T03:07:27.645Z,65.18
2023-05-21T03:09:54.854Z,65.20
2023-05-21T03:12:22.097Z,65.32
2023-05-21T03:14:51.482Z,65.09
2023-05-21T03:17:20.601Z,65.05
2023-05-21T03:19:49.133Z,65.15
2023-05-21T03:22:16.185Z,65.10
2023-05-21T03:24:45.099Z,65.56
2023-05-21T03:27:12.382Z,65.34
2023-05-21T03:29:40.094Z,65.45
2023-05-21T03:32:08.067Z,65.38
2023-05-21T03:34:35.602Z,65.42
2023-05-21T03:37:03.343Z,65.35
2023-05-21T03:39:31.456Z,65.35
2023-05-21T03:41:59.145Z,65.27
2023-05-21T03:44:41.684Z,65.28
2023-05-21T03:47:27.406Z,65.45
2023-05-21T03:49:54.920Z,65.78
2023-05-21T03:52:21.739Z,65.45
2023-05-21T03:54:48.627Z,65.79
2023-05-21T03:57:15.857Z,65.53
2023-05-21T03:59:43.644Z,65.47
2023-05-21T04:02:10.692Z,65.91
2023-05-21T04:04:37.807Z,65.67
2023-05-21T04:07:05.401Z,65.76
2023-05-21T04:09:32.177Z,65.84
2023-05-21T04:11:58.935Z,65.85
2023-05-21T04:14:25.833Z,66.02
2023-05-21T04:16:52.887Z,65.96
2023-05-21T04:19:21.033Z,66.14
2023-05-21T04:21:48.950Z,66.25
2023-05-21T04:24:16.257Z,66.25
2023-05-21T04:27:01.125Z,66.22
2023-05-21T04:29:31.358Z,66.15
2023-05-21T04:31:58.880Z,66.49
2023-05-21T04:34:25.860Z,66.02
2023-05-21T04:36:52.692Z,66.26
2023-05-21T04:39:19.647Z,66.09
2023-05-21T04:41:46.588Z,65.87
2023-05-21T04:44:14.876Z,66.23
2023-05-21T04:46:46.327Z,66.04
2023-05-21T04:49:13.637Z,66.05
2023-05-21T04:51:40.435Z,66.17
2023-05-21T04:54:07.983Z,66.29
2023-05-21T04:56:35.728Z,66.01
2023-05-21T04:59:05.561Z,66.28
2023-05-21T05:01:35.421Z,65.73
2023-05-21T05:04:02.351Z,65.86
2023-05-21T05:06:29.699Z,65.86
2023-05-21T05:08:56.691Z,65.83
2023-05-21T05:11:23.890Z,65.81
2023-05-21T05:13:51.068Z,65.76
2023-05-21T05:16:24.698Z,65.74
2023-05-21T05:18:52.713Z,65.61
2023-05-21T05:21:21.866Z,66.01
2023-05-21T05:23:48.714Z,66.05
2023-05-21T05:26:15.846Z,65.97
2023-05-21T05:28:42.842Z,65.85
2023-05-21T05:31:09.802Z,65.51
2023-05-21T05:33:36.720Z,65.46
2023-05-21T05:36:03.741Z,65.80
2023-05-21T05:38:31.133Z,65.71
2023-05-21T05:40:57.990Z,65.70
2023-05-21T05:43:26.388Z,66.02
2023-05-21T05:45:53.539Z,66.15
2023-05-21T05:48:20.789Z,65.89
2023-05-21T05:50:48.285Z,65.92
2023-05-21T05:53:15.411Z,66.38
2023-05-21T05:55:42.591Z,66.70
2023-05-21T05:58:09.547Z,65.85
2023-05-21T06:00:48.842Z,66.00
2023-05-21T06:03:16.177Z,66.44
2023-05-21T06:05:43.217Z,66.39
2023-05-21T06:08:10.877Z,66.03
2023-05-21T06:10:37.835Z,66.50
2023-05-21T06:13:04.699Z,65.86
2023-05-21T06:15:31.507Z,65.71
2023-05-21T06:17:58.300Z,66.00
2023-05-21T06:20:25.078Z,65.68
2023-05-21T06:22:53.361Z,65.43
2023-05-21T06:25:20.481Z,65.70
2023-05-21T06:27:47.417Z,65.60
2023-05-21T06:30:20.075Z,65.65
2023-05-21T06:32:47.071Z,65.88
2023-05-21T06:35:14.918Z,65.71
2023-05-21T06:37:43.017Z,65.77
2023-05-21T06:40:10.273Z,65.84
2023-05-21T06:42:37.910Z,65.69
2023-05-21T06:45:37.137Z,65.70
2023-05-21T06:48:24.423Z,65.79
2023-05-21T06:50:51.450Z,66.00
2023-05-21T06:53:18.684Z,65.92
2023-05-21T06:55:45.998Z,66.12
2023-05-21T06:58:22.288Z,65.92
2023-05-21T07:00:49.345Z,65.26
2023-05-21T07:03:16.355Z,65.54
2023-05-21T07:05:43.282Z,65.11
2023-05-21T07:08:12.189Z,65.28
2023-05-21T07:10:39.295Z,65.44
2023-05-21T07:13:06.159Z,65.97
2023-05-21T07:15:33.047Z,65.60
2023-05-21T07:18:02.321Z,65.69
2023-05-21T07:20:29.382Z,65.48
2023-05-21T07:22:59.370Z,65.26
2023-05-21T07:25:26.099Z,65.34
2023-05-21T07:27:53.028Z,65.61
2023-05-21T07:30:20.793Z,65.32
2023-05-21T07:32:47.674Z,65.70
2023-05-21T07:35:14.750Z,65.46
2023-05-21T07:37:41.911Z,65.35
2023-05-21T07:40:10.026Z,65.51
2023-05-21T07:42:37.307Z,65.28
2023-05-21T07:45:04.595Z,64.54
2023-05-21T07:47:36.335Z,64.58
2023-05-21T07:50:03.252Z,64.38
2023-05-21T07:52:30.210Z,64.45
2023-05-21T07:54:57.053Z,64.09
2023-05-21T07:57:25.726Z,63.24
2023-05-21T07:59:59.624Z,62.31
2023-05-21T08:02:26.931Z,62.46
2023-05-21T08:04:55.101Z,62.74
2023-05-21T08:07:22.134Z,63.00
2023-05-21T08:09:48.986Z,62.41
2023-05-21T08:12:16.016Z,62.59
2023-05-21T08:14:43.752Z,62.55
2023-05-21T08:17:12.616Z,62.16
2023-05-21T08:19:39.564Z,62.49
2023-05-21T08:22:06.957Z,62.26
2023-05-21T08:24:35.579Z,61.78
2023-05-21T08:27:02.345Z,62.17
2023-05-21T08:29:31.798Z,61.91
2023-05-21T08:31:59.763Z,62.19
2023-05-21T08:34:26.666Z,61.40
2023-05-21T08:37:05.541Z,62.29
2023-05-21T08:39:58.412Z,61.63
2023-05-21T08:42:37.603Z,61.03
2023-05-21T08:45:07.148Z,61.63
2023-05-21T08:47:37.255Z,61.72
2023-05-21T08:50:16.378Z,62.10
2023-05-21T08:52:43.149Z,62.02
2023-05-21T08:55:10.711Z,62.06
2023-05-21T08:57:42.739Z,62.33
2023-05-21T09:00:11.882Z,62.80
2023-05-21T09:02:43.634Z,63.26
2023-05-21T09:05:11.783Z,62.28
2023-05-21T09:08:11.548Z,61.88
2023-05-21T09:10:51.833Z,61.98
2023-05-21T09:13:21.666Z,62.28
2023-05-21T09:15:51.471Z,62.99
2023-05-21T09:18:19.425Z,63.11
2023-05-21T09:20:59.589Z,62.79
2023-05-21T09:23:28.764Z,62.67
2023-05-21T09:25:55.524Z,62.65
2023-05-21T09:28:28.173Z,63.53
2023-05-21T09:30:54.968Z,63.13
2023-05-21T09:33:27.314Z,61.57
2023-05-21T09:35:54.549Z,61.60
2023-05-21T09:38:25.881Z,61.80
2023-05-21T09:40:55.068Z,62.06
2023-05-21T09:43:22.796Z,61.25
2023-05-21T09:45:58.907Z,61.21
2023-05-21T09:48:42.857Z,60.28
2023-05-21T09:51:18.572Z,60.24
2023-05-21T09:53:50.024Z,60.53
2023-05-21T09:56:18.928Z,60.15
2023-05-21T09:58:46.363Z,60.45
2023-05-21T10:01:13.577Z,60.89
2023-05-21T10:03:40.921Z,60.57
2023-05-21T10:06:11.604Z,60.54
2023-05-21T10:08:43.515Z,60.80
2023-05-21T10:11:10.737Z,60.34
2023-05-21T10:13:39.827Z,59.30
2023-05-21T10:16:08.010Z,58.89
2023-05-21T10:18:49.518Z,58.16
2023-05-21T10:21:16.546Z,59.17
2023-05-21T10:23:44.064Z,59.67
2023-05-21T10:26:11.322Z,59.05
2023-05-21T10:28:38.108Z,57.83
2023-05-21T10:31:05.070Z,57.85
2023-05-21T10:33:32.157Z,57.95
2023-05-21T10:35:59.602Z,57.60
2023-05-21T10:38:27.834Z,57.30
2023-05-21T10:40:55.902Z,56.38
2023-05-21T10:44:03.754Z,54.76
2023-05-21T10:46:53.114Z,55.74
2023-05-21T10:49:38.405Z,55.09
2023-05-21T10:52:20.332Z,56.15
2023-05-21T10:55:41.444Z,54.90
2023-05-21T10:58:31.609Z,54.36
2023-05-21T11:00:59.389Z,55.16
2023-05-21T11:03:26.434Z,55.05
2023-05-21T11:05:56.292Z,54.69
2023-05-21T11:08:36.077Z,55.09
2023-05-21T11:11:03.899Z,54.21
2023-05-21T11:13:50.276Z,53.81
2023-05-21T11:16:17.728Z,55.17
2023-05-21T11:18:47.436Z,54.66
2023-05-21T11:21:18.552Z,53.73
2023-05-21T11:23:52.381Z,53.98
2023-05-21T11:26:20.841Z,54.63
2023-05-21T11:28:50.844Z,54.61
2023-05-21T11:31:25.840Z,54.14
2023-05-21T11:34:11.237Z,53.64
2023-05-21T11:36:39.446Z,54.48
2023-05-21T11:39:21.901Z,54.48
2023-05-21T11:41:58.254Z,54.57
2023-05-21T11:44:44.553Z,53.34
2023-05-21T11:47:12.628Z,54.61
2023-05-21T11:49:39.559Z,54.88
2023-05-21T11:52:08.270Z,55.51
2023-05-21T11:54:40.957Z,54.64
2023-05-21T11:57:07.997Z,54.44
2023-05-21T11:59:35.733Z,54.75
2023-05-21T12:02:03.440Z,54.54
2023-05-21T12:04:37.551Z,54.35
2023-05-21T12:07:07.762Z,54.63
2023-05-21T12:09:45.282Z,54.38
2023-05-21T12:12:14.533Z,54.09
2023-05-21T12:14:45.482Z,53.57
2023-05-21T12:17:13.531Z,53.35
2023-05-21T12:19:41.116Z,53.74
2023-05-21T12:22:08.632Z,53.77
2023-05-21T12:24:37.182Z,53.59
2023-05-21T12:27:09.541Z,53.99
2023-05-21T12:29:38.260Z,54.90
2023-05-21T12:32:07.374Z,54.29
2023-05-21T12:34:44.935Z,53.01
2023-05-21T12:37:14.598Z,53.14
2023-05-21T12:39:45.200Z,52.26
2023-05-21T12:42:12.334Z,51.97
2023-05-21T12:44:46.522Z,51.12
2023-05-21T12:47:13.846Z,50.25
2023-05-21T12:49:42.909Z,48.90
2023-05-21T12:52:11.578Z,48.53
2023-05-21T12:54:39.846Z,48.99
2023-05-21T12:57:21.152Z,47.78
2023-05-21T12:59:47.993Z,48.98
2023-05-21T13:02:25.115Z,49.51
2023-05-21T13:05:02.028Z,49.88
2023-05-21T13:07:30.939Z,50.89
2023-05-21T13:09:58.141Z,51.12
2023-05-21T13:12:27.070Z,50.42
2023-05-21T13:14:55.406Z,50.01
2023-05-21T13:17:22.600Z,50.45
2023-05-21T13:20:08.911Z,49.44
2023-05-21T13:22:39.070Z,48.28
2023-05-21T13:25:07.199Z,48.03
2023-05-21T13:27:34.023Z,47.39
2023-05-21T13:30:01.974Z,47.87
2023-05-21T13:32:29.262Z,48.56
2023-05-21T13:34:56.196Z,48.04
2023-05-21T13:37:22.901Z,47.39
2023-05-21T13:39:49.753Z,47.95
2023-05-21T13:42:17.728Z,47.52
2023-05-21T13:44:44.491Z,47.68
2023-05-21T13:47:12.029Z,47.93
2023-05-21T13:49:39.481Z,48.93
2023-05-21T13:52:07.648Z,48.28
2023-05-21T13:54:34.783Z,48.35
2023-05-21T13:57:01.780Z,47.79
2023-05-21T13:59:29.643Z,47.76
2023-05-21T14:01:58.145Z,48.33
2023-05-21T14:04:25.062Z,47.61
2023-05-21T14:06:52.360Z,46.72
2023-05-21T14:09:19.355Z,47.79
2023-05-21T14:11:46.445Z,47.64
2023-05-21T14:14:18.700Z,47.39
2023-05-21T14:16:47.150Z,48.22
2023-05-21T14:19:14.335Z,47.77
2023-05-21T14:21:41.356Z,47.93
2023-05-21T14:24:08.303Z,47.68
2023-05-21T14:26:36.766Z,47.87
2023-05-21T14:29:03.452Z,47.16
2023-05-21T14:31:30.181Z,47.02
2023-05-21T14:33:56.935Z,46.82
2023-05-21T14:36:23.708Z,47.21
2023-05-21T14:38:50.613Z,45.94
2023-05-21T14:41:17.354Z,45.85
2023-05-21T14:43:44.219Z,45.13
2023-05-21T14:46:11.198Z,45.25
2023-05-21T14:48:37.930Z,45.03
2023-05-21T14:51:04.752Z,45.21
2023-05-21T14:53:32.222Z,44.66
2023-05-21T14:55:59.132Z,44.62
2023-05-21T14:58:26.044Z,45.37
2023-05-21T15:00:52.822Z,45.16
2023-05-21T15:03:19.793Z,45.78
2023-05-21T15:05:46.638Z,45.27
2023-05-21T15:08:13.432Z,45.15
2023-05-21T15:10:40.285Z,45.02
2023-05-21T15:13:09.202Z,45.39
2023-05-21T15:15:36.456Z,45.15
2023-05-21T15:18:03.466Z,45.13
2023-05-21T15:20:30.294Z,44.68
2023-05-21T15:23:15.370Z,44.73
2023-05-21T15:25:43.257Z,44.36
2023-05-21T15:28:10.067Z,44.67
2023-05-21T15:30:36.942Z,44.96
2023-05-21T15:33:03.726Z,44.88
2023-05-21T15:35:30.631Z,45.55
2023-05-21T15:37:58.983Z,45.65
2023-05-21T16:01:54.433Z,46.01
2023-05-21T16:04:21.295Z,46.42
2023-05-21T16:06:48.126Z,46.17
2023-05-21T16:09:15.429Z,46.04
2023-05-21T16:11:44.737Z,46.74
2023-05-21T16:14:12.031Z,46.91
2023-05-21T16:16:38.991Z,46.32
2023-05-21T16:19:06.088Z,46.16
2023-05-21T16:21:33.049Z,46.22
2023-05-21T16:24:00.551Z,46.70
2023-05-21T16:26:27.404Z,46.94
2023-05-21T16:28:54.154Z,47.52
2023-05-21T16:31:21.133Z,46.78
2023-05-21T16:33:47.980Z,47.17
2023-05-21T16:36:16.301Z,47.77
2023-05-21T16:38:44.647Z,47.67
2023-05-21T16:41:11.508Z,47.62
2023-05-21T16:43:38.306Z,47.43
2023-05-21T16:46:05.390Z,47.63
2023-05-21T16:48:32.799Z,48.04
2023-05-21T16:51:02.353Z,48.58
2023-05-21T16:53:29.191Z,48.51
2023-05-21T16:55:56.013Z,48.61
2023-05-21T16:58:22.837Z,48.69
2023-05-21T17:00:49.708Z,48.66
2023-05-21T17:03:17.037Z,49.24
2023-05-21T17:05:44.142Z,48.66
2023-05-21T17:08:10.901Z,48.38
2023-05-21T17:10:37.782Z,47.96
2023-05-21T17:13:17.483Z,48.96
2023-05-21T17:15:44.995Z,49.22
2023-05-21T17:18:12.053Z,50.04
2023-05-21T17:20:38.991Z,49.52
2023-05-21T17:23:05.819Z,49.89
2023-05-21T17:25:34.378Z,50.81
2023-05-21T17:28:01.631Z,51.10
2023-05-21T17:30:28.439Z,51.41
2023-05-21T17:32:55.382Z,51.98
2023-05-21T17:35:22.271Z,52.78
2023-05-21T17:37:49.499Z,53.00
2023-05-21T17:40:20.252Z,53.20
2023-05-21T17:42:47.405Z,53.25
2023-05-21T17:45:14.212Z,53.55
2023-05-21T17:47:41.164Z,53.74
2023-05-21T17:50:08.556Z,53.94
2023-05-21T17:52:35.372Z,54.06
2023-05-21T17:55:03.245Z,54.40
2023-05-21T17:57:30.620Z,54.32
2023-05-21T17:59:57.444Z,54.41
2023-05-21T18:02:24.362Z,54.47
2023-05-21T18:04:51.222Z,54.51
2023-05-21T18:07:17.964Z,54.41
2023-05-21T18:09:45.325Z,54.66
2023-05-21T18:12:12.098Z,54.75
2023-05-21T18:14:38.858Z,54.57
2023-05-21T18:17:05.988Z,54.79
2023-05-21T18:19:32.976Z,54.71
2023-05-21T18:21:59.942Z,54.78
2023-05-21T18:24:26.726Z,54.75
2023-05-21T18:26:53.655Z,55.31
2023-05-21T18:29:20.410Z,55.15
2023-05-21T18:31:47.531Z,55.00
2023-05-21T18:34:15.513Z,55.04
2023-05-21T18:36:42.649Z,55.28
2023-05-21T18:39:09.719Z,55.40
2023-05-21T18:41:37.414Z,55.51
2023-05-21T18:44:05.974Z,55.55
2023-05-21T18:46:33.125Z,55.59
2023-05-21T18:49:00.758Z,55.44
2023-05-21T18:51:27.734Z,55.94
2023-05-21T18:53:55.129Z,56.06
2023-05-21T18:56:22.638Z,56.07
2023-05-21T18:58:49.518Z,56.14
2023-05-21T19:01:17.713Z,56.07
2023-05-21T19:03:44.452Z,56.02
2023-05-21T19:06:11.188Z,56.08
2023-05-21T19:08:38.017Z,56.38
2023-05-21T19:11:05.326Z,56.23
2023-05-21T19:13:32.237Z,56.23
2023-05-21T19:15:59.100Z,56.29
2023-05-21T19:18:30.364Z,56.14
2023-05-21T19:20:57.590Z,56.14
2023-05-21T19:23:25.006Z,56.07
2023-05-21T19:25:51.802Z,56.31
2023-05-21T19:28:18.883Z,56.05
2023-05-21T19:30:46.426Z,56.17
2023-05-21T19:33:13.577Z,55.89
2023-05-21T19:35:41.938Z,55.75
2023-05-21T19:38:11.628Z,56.36
2023-05-21T19:40:38.768Z,56.65
2023-05-21T19:43:05.789Z,56.95
2023-05-21T19:45:32.721Z,57.15
2023-05-21T19:48:00.041Z,57.23
2023-05-21T19:50:28.849Z,57.65
2023-05-21T19:52:57.267Z,57.69
2023-05-21T19:55:24.844Z,57.69
2023-05-21T19:57:51.975Z,57.99
2023-05-21T20:00:19.262Z,58.01
2023-05-21T20:02:46.339Z,58.28
2023-05-21T20:05:13.691Z,58.41
2023-05-21T20:07:41.439Z,58.33
2023-05-21T20:10:08.790Z,58.74
2023-05-21T20:12:36.088Z,58.63
2023-05-21T20:15:03.446Z,58.96
2023-05-21T20:17:30.698Z,58.60
2023-05-21T20:19:59.109Z,58.31
2023-05-21T20:22:25.981Z,58.47
2023-05-21T20:24:53.176Z,58.48
2023-05-21T20:27:20.385Z,58.58
2023-05-21T20:29:47.098Z,58.86
2023-05-21T20:32:13.897Z,58.65
2023-05-21T20:34:54.362Z,58.94
2023-05-21T20:37:28.432Z,59.29
2023-05-21T20:39:57.750Z,59.31
2023-05-21T20:42:28.504Z,59.49
2023-05-21T20:44:58.811Z,59.62
2023-05-21T20:47:29.843Z,59.62
2023-05-21T20:50:00.033Z,59.61
2023-05-21T20:52:27.227Z,59.51
2023-05-21T20:54:54.844Z,59.46
2023-05-21T20:57:25.965Z,59.75
2023-05-21T20:59:53.394Z,59.85
2023-05-21T21:02:20.657Z,59.89
2023-05-21T21:04:49.143Z,59.76
2023-05-21T21:07:18.077Z,59.84
2023-05-21T21:09:46.595Z,59.75
2023-05-21T21:12:24.646Z,60.15
2023-05-21T21:14:52.386Z,59.96
2023-05-21T21:17:19.394Z,60.40
2023-05-21T21:19:46.172Z,60.38
2023-05-21T21:22:12.945Z,60.67
2023-05-21T21:24:39.789Z,60.83
2023-05-21T21:27:06.746Z,60.83
2023-05-21T21:29:33.546Z,60.70
2023-05-21T21:32:00.261Z,60.69
2023-05-21T21:34:27.021Z,61.08
2023-05-21T21:36:54.444Z,61.00
2023-05-21T21:39:21.261Z,61.08
2023-05-21T21:41:47.983Z,61.17
2023-05-21T21:44:14.737Z,61.19
2023-05-21T21:46:41.606Z,61.16
2023-05-21T21:49:08.397Z,61.43
2023-05-21T21:51:35.327Z,61.53
2023-05-21T21:54:02.232Z,61.68
2023-05-21T21:56:29.667Z,61.62
2023-05-21T21:58:56.439Z,61.80
2023-05-21T22:01:23.227Z,61.68
2023-05-21T22:03:50.269Z,61.58
2023-05-21T22:06:17.087Z,61.81
2023-05-21T22:08:44.184Z,61.87
2023-05-21T22:11:11.580Z,61.85
2023-05-21T22:13:38.479Z,61.51
2023-05-21T22:16:05.621Z,61.37
2023-05-21T22:18:40.914Z,61.69
2023-05-21T22:21:10.126Z,61.64
2023-05-21T22:23:38.083Z,61.80
2023-05-21T22:26:04.943Z,61.84
2023-05-21T22:28:31.742Z,61.91
2023-05-21T22:30:58.924Z,61.83
2023-05-21T22:33:26.601Z,61.80
2023-05-21T22:35:54.180Z,61.54
2023-05-21T22:38:21.482Z,61.75
2023-05-21T22:40:48.444Z,61.62
2023-05-21T22:43:15.237Z,61.76
2023-05-21T22:45:42.245Z,61.53
2023-05-21T22:48:09.474Z,61.71
2023-05-21T22:50:38.857Z,61.01
2023-05-21T22:53:06.633Z,60.77
2023-05-21T22:55:33.594Z,60.85
2023-05-21T22:58:00.528Z,60.83
2023-05-21T23:00:27.472Z,60.86
2023-05-21T23:02:54.968Z,60.93
2023-05-21T23:05:22.435Z,61.18
2023-05-21T23:07:49.479Z,61.53
2023-05-21T23:10:16.269Z,61.45
2023-05-21T23:12:43.032Z,61.56
2023-05-21T23:15:10.839Z,61.78
2023-05-21T23:17:38.099Z,61.83
2023-05-21T23:20:06.156Z,61.51
2023-05-21T23:22:32.958Z,61.84
2023-05-21T23:24:59.739Z,62.01
2023-05-21T23:27:26.530Z,61.93
2023-05-21T23:29:53.436Z,61.94
2023-05-21T23:32:20.347Z,62.02
2023-05-21T23:34:47.237Z,61.94
2023-05-21T23:37:14.100Z,62.42
2023-05-21T23:39:40.932Z,62.25
2023-05-21T23:42:07.743Z,62.00
2023-05-21T23:44:34.732Z,62.27
2023-05-21T23:47:01.640Z,61.77
2023-05-21T23:49:28.398Z,62.21
2023-05-21T23:51:55.446Z,61.74
2023-05-21T23:54:22.416Z,61.52
2023-05-21T23:56:49.293Z,61.73
2023-05-21T23:59:18.351Z,62.04
